sensor_id;sensor_type;location;lat;lon;timestamp;P1;durP1;ratioP1;P2;durP2;ratioP2
61091;SDS011;46975;51.898;11.444;2022-09-09T00:04:18;2.95;;;0.77;;
61091;SDS011;46975;51.898;11.444;2022-09-09T00:09:29;1.17;;;0.97;;
61091;SDS011;46975;51.898;11.444;2022-09-09T00:12:02;3.05;;;1.00;;
61091;SDS011;46975;51.898;11.444;2022-09-09T00:14:51;5.63;;;1.00;;
61091;SDS011;46975;51.898;11.444;2022-09-09T00:28:58;2.75;;;0.60;;
61091;SDS011;46975;51.898;11.444;2022-09-09T00:31:35;2.10;;;0.90;;
61091;SDS011;46975;51.898;11.444;2022-09-09T00:34:09;1.60;;;0.88;;
61091;SDS011;46975;51.898;11.444;2022-09-09T00:36:43;1.38;;;0.98;;
61091;SDS011;46975;51.898;11.444;2022-09-09T00:39:17;1.40;;;1.25;;
61091;SDS011;46975;51.898;11.444;2022-09-09T00:42:02;0.55;;;0.50;;
61091;SDS011;46975;51.898;11.444;2022-09-09T00:44:37;1.60;;;0.60;;
61091;SDS011;46975;51.898;11.444;2022-09-09T00:54:55;2.85;;;1.42;;
61091;SDS011;46975;51.898;11.444;2022-09-09T00:57:32;1.10;;;1.00;;
61091;SDS011;46975;51.898;11.444;2022-09-09T01:00:16;1.95;;;0.93;;
61091;SDS011;46975;51.898;11.444;2022-09-09T01:05:59;2.25;;;1.55;;
61091;SDS011;46975;51.898;11.444;2022-09-09T01:11:22;3.22;;;0.70;;
61091;SDS011;46975;51.898;11.444;2022-09-09T01:14:01;3.92;;;1.38;;
61091;SDS011;46975;51.898;11.444;2022-09-09T01:16:38;1.33;;;1.05;;
61091;SDS011;46975;51.898;11.444;2022-09-09T01:19:07;4.20;;;1.83;;
61091;SDS011;46975;51.898;11.444;2022-09-09T01:21:55;2.17;;;1.50;;
61091;SDS011;46975;51.898;11.444;2022-09-09T01:27:01;3.03;;;1.30;;
61091;SDS011;46975;51.898;11.444;2022-09-09T01:29:28;4.40;;;1.20;;
61091;SDS011;46975;51.898;11.444;2022-09-09T01:31:55;1.67;;;1.20;;
61091;SDS011;46975;51.898;11.444;2022-09-09T01:39:31;3.55;;;1.13;;
61091;SDS011;46975;51.898;11.444;2022-09-09T01:42:01;1.83;;;1.25;;
61091;SDS011;46975;51.898;11.444;2022-09-09T01:44:27;3.45;;;1.17;;
61091;SDS011;46975;51.898;11.444;2022-09-09T01:46:55;5.13;;;1.75;;
61091;SDS011;46975;51.898;11.444;2022-09-09T01:49:20;1.40;;;1.17;;
61091;SDS011;46975;51.898;11.444;2022-09-09T01:51:48;3.55;;;1.15;;
61091;SDS011;46975;51.898;11.444;2022-09-09T01:54:17;4.95;;;1.77;;
61091;SDS011;46975;51.898;11.444;2022-09-09T01:56:50;2.78;;;1.45;;
61091;SDS011;46975;51.898;11.444;2022-09-09T01:59:45;3.75;;;1.77;;
61091;SDS011;46975;51.898;11.444;2022-09-09T02:07:39;4.55;;;1.45;;
61091;SDS011;46975;51.898;11.444;2022-09-09T02:13:10;2.58;;;1.83;;
61091;SDS011;46975;51.898;11.444;2022-09-09T02:18:09;6.47;;;1.45;;
61091;SDS011;46975;51.898;11.444;2022-09-09T02:20:39;2.88;;;1.55;;
61091;SDS011;46975;51.898;11.444;2022-09-09T02:23:07;2.47;;;1.23;;
61091;SDS011;46975;51.898;11.444;2022-09-09T02:25:35;1.10;;;1.00;;
61091;SDS011;46975;51.898;11.444;2022-09-09T02:28:03;1.87;;;1.10;;
61091;SDS011;46975;51.898;11.444;2022-09-09T02:30:32;3.33;;;1.45;;
61091;SDS011;46975;51.898;11.444;2022-09-09T02:33:00;1.95;;;1.35;;
61091;SDS011;46975;51.898;11.444;2022-09-09T02:35:28;4.05;;;1.27;;
61091;SDS011;46975;51.898;11.444;2022-09-09T02:37:59;3.83;;;1.50;;
61091;SDS011;46975;51.898;11.444;2022-09-09T02:40:28;7.18;;;2.60;;
61091;SDS011;46975;51.898;11.444;2022-09-09T02:42:54;5.05;;;1.73;;
61091;SDS011;46975;51.898;11.444;2022-09-09T02:45:20;2.97;;;1.38;;
61091;SDS011;46975;51.898;11.444;2022-09-09T02:47:51;4.25;;;1.90;;
61091;SDS011;46975;51.898;11.444;2022-09-09T02:56:39;2.70;;;1.63;;
61091;SDS011;46975;51.898;11.444;2022-09-09T02:59:10;4.88;;;1.30;;
61091;SDS011;46975;51.898;11.444;2022-09-09T03:01:36;3.35;;;1.45;;
61091;SDS011;46975;51.898;11.444;2022-09-09T03:04:05;4.93;;;1.50;;
61091;SDS011;46975;51.898;11.444;2022-09-09T03:06:30;2.75;;;1.25;;
61091;SDS011;46975;51.898;11.444;2022-09-09T03:08:56;1.83;;;1.25;;
61091;SDS011;46975;51.898;11.444;2022-09-09T03:11:25;3.15;;;1.45;;
61091;SDS011;46975;51.898;11.444;2022-09-09T03:13:52;2.33;;;1.60;;
61091;SDS011;46975;51.898;11.444;2022-09-09T03:16:21;5.18;;;1.30;;
61091;SDS011;46975;51.898;11.444;2022-09-09T03:18:49;5.43;;;2.10;;
61091;SDS011;46975;51.898;11.444;2022-09-09T03:21:15;2.97;;;1.38;;
61091;SDS011;46975;51.898;11.444;2022-09-09T03:23:40;5.00;;;1.30;;
61091;SDS011;46975;51.898;11.444;2022-09-09T03:26:06;6.35;;;1.65;;
61091;SDS011;46975;51.898;11.444;2022-09-09T03:28:32;3.35;;;1.45;;
61091;SDS011;46975;51.898;11.444;2022-09-09T03:31:02;1.75;;;1.25;;
61091;SDS011;46975;51.898;11.444;2022-09-09T03:33:29;1.80;;;1.17;;
61091;SDS011;46975;51.898;11.444;2022-09-09T03:35:55;2.60;;;1.15;;
61091;SDS011;46975;51.898;11.444;2022-09-09T03:38:22;2.97;;;1.23;;
61091;SDS011;46975;51.898;11.444;2022-09-09T03:40:49;5.35;;;1.13;;
61091;SDS011;46975;51.898;11.444;2022-09-09T03:43:16;3.22;;;1.40;;
61091;SDS011;46975;51.898;11.444;2022-09-09T03:45:45;3.90;;;1.20;;
61091;SDS011;46975;51.898;11.444;2022-09-09T03:48:14;1.88;;;1.30;;
61091;SDS011;46975;51.898;11.444;2022-09-09T03:53:12;4.85;;;1.38;;
61091;SDS011;46975;51.898;11.444;2022-09-09T03:55:39;5.07;;;1.73;;
61091;SDS011;46975;51.898;11.444;2022-09-09T03:58:08;8.13;;;1.92;;
61091;SDS011;46975;51.898;11.444;2022-09-09T04:00:34;6.88;;;1.70;;
61091;SDS011;46975;51.898;11.444;2022-09-09T04:02:59;2.95;;;1.50;;
61091;SDS011;46975;51.898;11.444;2022-09-09T04:05:25;2.08;;;1.45;;
61091;SDS011;46975;51.898;11.444;2022-09-09T04:07:50;2.53;;;1.65;;
61091;SDS011;46975;51.898;11.444;2022-09-09T04:10:18;3.78;;;1.67;;
61091;SDS011;46975;51.898;11.444;2022-09-09T04:12:44;1.67;;;1.33;;
61091;SDS011;46975;51.898;11.444;2022-09-09T04:15:09;1.70;;;1.60;;
61091;SDS011;46975;51.898;11.444;2022-09-09T04:17:35;3.33;;;1.80;;
61091;SDS011;46975;51.898;11.444;2022-09-09T04:20:01;3.13;;;1.30;;
61091;SDS011;46975;51.898;11.444;2022-09-09T04:22:27;2.47;;;1.77;;
61091;SDS011;46975;51.898;11.444;2022-09-09T04:24:53;5.13;;;1.40;;
61091;SDS011;46975;51.898;11.444;2022-09-09T04:27:18;3.28;;;1.45;;
61091;SDS011;46975;51.898;11.444;2022-09-09T04:29:44;2.85;;;1.45;;
61091;SDS011;46975;51.898;11.444;2022-09-09T04:32:09;3.30;;;1.38;;
61091;SDS011;46975;51.898;11.444;2022-09-09T04:34:36;3.13;;;1.75;;
61091;SDS011;46975;51.898;11.444;2022-09-09T04:37:02;3.28;;;1.60;;
61091;SDS011;46975;51.898;11.444;2022-09-09T04:39:27;5.28;;;1.77;;
61091;SDS011;46975;51.898;11.444;2022-09-09T04:41:53;3.95;;;1.60;;
61091;SDS011;46975;51.898;11.444;2022-09-09T04:44:19;4.32;;;1.40;;
61091;SDS011;46975;51.898;11.444;2022-09-09T04:46:45;4.57;;;1.85;;
61091;SDS011;46975;51.898;11.444;2022-09-09T04:49:10;4.25;;;1.80;;
61091;SDS011;46975;51.898;11.444;2022-09-09T04:51:36;3.85;;;1.05;;
61091;SDS011;46975;51.898;11.444;2022-09-09T04:54:02;3.75;;;1.95;;
61091;SDS011;46975;51.898;11.444;2022-09-09T04:56:27;2.03;;;1.38;;
61091;SDS011;46975;51.898;11.444;2022-09-09T04:58:53;4.97;;;1.60;;
61091;SDS011;46975;51.898;11.444;2022-09-09T05:01:20;1.90;;;1.17;;
61091;SDS011;46975;51.898;11.444;2022-09-09T05:03:47;3.38;;;1.05;;
61091;SDS011;46975;51.898;11.444;2022-09-09T05:06:14;1.65;;;1.20;;
61091;SDS011;46975;51.898;11.444;2022-09-09T05:08:42;6.18;;;2.13;;
61091;SDS011;46975;51.898;11.444;2022-09-09T05:13:41;1.83;;;1.08;;
61091;SDS011;46975;51.898;11.444;2022-09-09T05:16:07;1.85;;;1.15;;
61091;SDS011;46975;51.898;11.444;2022-09-09T05:18:36;3.10;;;1.17;;
61091;SDS011;46975;51.898;11.444;2022-09-09T05:21:02;4.43;;;1.23;;
61091;SDS011;46975;51.898;11.444;2022-09-09T05:23:28;5.43;;;1.20;;
61091;SDS011;46975;51.898;11.444;2022-09-09T05:25:57;3.28;;;1.42;;
61091;SDS011;46975;51.898;11.444;2022-09-09T05:28:26;4.05;;;1.33;;
61091;SDS011;46975;51.898;11.444;2022-09-09T05:31:00;2.88;;;1.23;;
61091;SDS011;46975;51.898;11.444;2022-09-09T05:33:30;5.72;;;1.80;;
61091;SDS011;46975;51.898;11.444;2022-09-09T05:35:57;2.28;;;1.13;;
61091;SDS011;46975;51.898;11.444;2022-09-09T05:38:24;1.88;;;1.05;;
61091;SDS011;46975;51.898;11.444;2022-09-09T05:40:50;3.70;;;1.02;;
61091;SDS011;46975;51.898;11.444;2022-09-09T05:43:17;5.63;;;1.42;;
61091;SDS011;46975;51.898;11.444;2022-09-09T05:45:44;1.17;;;0.75;;
61091;SDS011;46975;51.898;11.444;2022-09-09T05:48:14;4.00;;;1.10;;
61091;SDS011;46975;51.898;11.444;2022-09-09T05:50:41;3.05;;;0.90;;
61091;SDS011;46975;51.898;11.444;2022-09-09T05:53:07;5.68;;;1.00;;
61091;SDS011;46975;51.898;11.444;2022-09-09T05:55:34;1.35;;;0.88;;
61091;SDS011;46975;51.898;11.444;2022-09-09T05:57:59;1.95;;;0.70;;
61091;SDS011;46975;51.898;11.444;2022-09-09T06:00:26;0.70;;;0.70;;
61091;SDS011;46975;51.898;11.444;2022-09-09T06:02:52;2.28;;;0.80;;
61091;SDS011;46975;51.898;11.444;2022-09-09T06:05:19;4.07;;;0.55;;
61091;SDS011;46975;51.898;11.444;2022-09-09T06:07:45;1.88;;;0.80;;
61091;SDS011;46975;51.898;11.444;2022-09-09T06:10:11;2.00;;;0.55;;
61091;SDS011;46975;51.898;11.444;2022-09-09T06:12:38;4.45;;;1.08;;
61091;SDS011;46975;51.898;11.444;2022-09-09T06:15:05;2.78;;;0.70;;
61091;SDS011;46975;51.898;11.444;2022-09-09T06:17:31;1.52;;;1.17;;
61091;SDS011;46975;51.898;11.444;2022-09-09T06:19:56;1.52;;;0.88;;
61091;SDS011;46975;51.898;11.444;2022-09-09T06:22:22;2.95;;;1.55;;
61091;SDS011;46975;51.898;11.444;2022-09-09T06:24:48;2.20;;;0.95;;
61091;SDS011;46975;51.898;11.444;2022-09-09T06:27:13;3.72;;;0.85;;
61091;SDS011;46975;51.898;11.444;2022-09-09T06:29:39;2.78;;;1.20;;
61091;SDS011;46975;51.898;11.444;2022-09-09T06:32:04;3.20;;;1.10;;
61091;SDS011;46975;51.898;11.444;2022-09-09T06:34:30;6.32;;;1.67;;
61091;SDS011;46975;51.898;11.444;2022-09-09T06:36:56;2.67;;;1.50;;
61091;SDS011;46975;51.898;11.444;2022-09-09T06:39:23;3.05;;;1.00;;
61091;SDS011;46975;51.898;11.444;2022-09-09T06:41:48;3.25;;;1.80;;
61091;SDS011;46975;51.898;11.444;2022-09-09T06:44:14;3.40;;;0.93;;
61091;SDS011;46975;51.898;11.444;2022-09-09T06:46:40;1.25;;;0.90;;
61091;SDS011;46975;51.898;11.444;2022-09-09T06:49:07;2.30;;;0.57;;
61091;SDS011;46975;51.898;11.444;2022-09-09T06:51:33;2.35;;;0.68;;
61091;SDS011;46975;51.898;11.444;2022-09-09T06:54:01;2.30;;;1.23;;
61091;SDS011;46975;51.898;11.444;2022-09-09T06:56:28;3.85;;;1.27;;
61091;SDS011;46975;51.898;11.444;2022-09-09T06:58:57;2.45;;;1.58;;
61091;SDS011;46975;51.898;11.444;2022-09-09T07:01:26;6.60;;;1.00;;
61091;SDS011;46975;51.898;11.444;2022-09-09T07:03:57;4.50;;;1.15;;
61091;SDS011;46975;51.898;11.444;2022-09-09T07:06:28;2.65;;;1.00;;
61091;SDS011;46975;51.898;11.444;2022-09-09T07:08:56;3.15;;;1.33;;
61091;SDS011;46975;51.898;11.444;2022-09-09T07:11:25;2.38;;;1.63;;
61091;SDS011;46975;51.898;11.444;2022-09-09T07:13:51;1.02;;;0.70;;
61091;SDS011;46975;51.898;11.444;2022-09-09T07:16:18;4.05;;;1.77;;
61091;SDS011;46975;51.898;11.444;2022-09-09T07:18:45;1.38;;;0.63;;
61091;SDS011;46975;51.898;11.444;2022-09-09T07:21:12;1.52;;;0.70;;
61091;SDS011;46975;51.898;11.444;2022-09-09T07:23:39;3.03;;;1.13;;
61091;SDS011;46975;51.898;11.444;2022-09-09T07:28:38;1.20;;;0.75;;
61091;SDS011;46975;51.898;11.444;2022-09-09T07:31:05;2.25;;;0.88;;
61091;SDS011;46975;51.898;11.444;2022-09-09T07:33:33;4.10;;;1.00;;
61091;SDS011;46975;51.898;11.444;2022-09-09T07:36:04;1.45;;;0.90;;
61091;SDS011;46975;51.898;11.444;2022-09-09T07:38:41;5.10;;;1.80;;
61091;SDS011;46975;51.898;11.444;2022-09-09T07:41:10;1.95;;;0.73;;
61091;SDS011;46975;51.898;11.444;2022-09-09T07:43:41;4.30;;;0.93;;
61091;SDS011;46975;51.898;11.444;2022-09-09T07:46:08;2.97;;;0.90;;
61091;SDS011;46975;51.898;11.444;2022-09-09T07:48:36;2.13;;;1.58;;
61091;SDS011;46975;51.898;11.444;2022-09-09T07:51:04;1.83;;;0.93;;
61091;SDS011;46975;51.898;11.444;2022-09-09T07:53:30;1.52;;;0.63;;
61091;SDS011;46975;51.898;11.444;2022-09-09T07:56:01;1.05;;;0.95;;
61091;SDS011;46975;51.898;11.444;2022-09-09T07:58:29;7.10;;;1.25;;
61091;SDS011;46975;51.898;11.444;2022-09-09T08:00:54;4.60;;;1.17;;
61091;SDS011;46975;51.898;11.444;2022-09-09T08:03:20;4.03;;;0.98;;
61091;SDS011;46975;51.898;11.444;2022-09-09T08:05:47;3.50;;;0.77;;
61091;SDS011;46975;51.898;11.444;2022-09-09T08:08:12;2.25;;;0.90;;
61091;SDS011;46975;51.898;11.444;2022-09-09T08:10:39;1.70;;;0.88;;
61091;SDS011;46975;51.898;11.444;2022-09-09T08:13:04;3.47;;;1.27;;
61091;SDS011;46975;51.898;11.444;2022-09-09T08:15:30;2.83;;;1.42;;
61091;SDS011;46975;51.898;11.444;2022-09-09T08:17:57;4.13;;;1.20;;
61091;SDS011;46975;51.898;11.444;2022-09-09T08:20:22;4.05;;;1.63;;
61091;SDS011;46975;51.898;11.444;2022-09-09T08:22:48;2.45;;;0.88;;
61091;SDS011;46975;51.898;11.444;2022-09-09T08:25:15;1.38;;;0.65;;
61091;SDS011;46975;51.898;11.444;2022-09-09T08:27:40;1.98;;;0.75;;
61091;SDS011;46975;51.898;11.444;2022-09-09T08:30:06;3.38;;;0.70;;
61091;SDS011;46975;51.898;11.444;2022-09-09T08:32:32;2.95;;;0.80;;
61091;SDS011;46975;51.898;11.444;2022-09-09T08:35:00;5.72;;;1.23;;
61091;SDS011;46975;51.898;11.444;2022-09-09T08:37:25;3.75;;;1.38;;
61091;SDS011;46975;51.898;11.444;2022-09-09T08:39:51;1.88;;;0.90;;
61091;SDS011;46975;51.898;11.444;2022-09-09T08:42:27;4.43;;;0.50;;
61091;SDS011;46975;51.898;11.444;2022-09-09T08:47:39;3.63;;;0.80;;
61091;SDS011;46975;51.898;11.444;2022-09-09T08:50:13;2.67;;;1.48;;
61091;SDS011;46975;51.898;11.444;2022-09-09T08:55:20;3.17;;;0.98;;
61091;SDS011;46975;51.898;11.444;2022-09-09T08:58:20;5.05;;;1.10;;
61091;SDS011;46975;51.898;11.444;2022-09-09T09:01:00;3.58;;;0.70;;
61091;SDS011;46975;51.898;11.444;2022-09-09T09:03:46;2.78;;;0.60;;
61091;SDS011;46975;51.898;11.444;2022-09-09T09:11:29;2.42;;;1.00;;
61091;SDS011;46975;51.898;11.444;2022-09-09T09:14:18;1.92;;;1.13;;
61091;SDS011;46975;51.898;11.444;2022-09-09T09:17:06;3.22;;;0.70;;
61091;SDS011;46975;51.898;11.444;2022-09-09T09:19:38;4.53;;;0.80;;
61091;SDS011;46975;51.898;11.444;2022-09-09T09:30:18;3.47;;;0.80;;
61091;SDS011;46975;51.898;11.444;2022-09-09T09:33:08;4.03;;;1.27;;
61091;SDS011;46975;51.898;11.444;2022-09-09T09:35:40;2.78;;;1.67;;
61091;SDS011;46975;51.898;11.444;2022-09-09T09:38:19;5.07;;;1.00;;
61091;SDS011;46975;51.898;11.444;2022-09-09T09:40:56;2.03;;;1.00;;
61091;SDS011;46975;51.898;11.444;2022-09-09T09:43:24;3.75;;;0.88;;
61091;SDS011;46975;51.898;11.444;2022-09-09T09:45:58;1.85;;;1.08;;
61091;SDS011;46975;51.898;11.444;2022-09-09T09:48:24;3.40;;;0.90;;
61091;SDS011;46975;51.898;11.444;2022-09-09T09:53:28;1.35;;;0.70;;
61091;SDS011;46975;51.898;11.444;2022-09-09T09:58:32;2.25;;;0.90;;
61091;SDS011;46975;51.898;11.444;2022-09-09T10:01:04;2.08;;;0.90;;
61091;SDS011;46975;51.898;11.444;2022-09-09T10:03:30;2.25;;;0.60;;
61091;SDS011;46975;51.898;11.444;2022-09-09T10:05:57;4.10;;;1.13;;
61091;SDS011;46975;51.898;11.444;2022-09-09T10:08:24;2.60;;;0.90;;
61091;SDS011;46975;51.898;11.444;2022-09-09T10:19:31;2.55;;;1.38;;
61091;SDS011;46975;51.898;11.444;2022-09-09T10:30:18;6.18;;;0.60;;
61091;SDS011;46975;51.898;11.444;2022-09-09T10:35:25;1.45;;;0.80;;
61091;SDS011;46975;51.898;11.444;2022-09-09T10:38:17;4.38;;;1.10;;
61091;SDS011;46975;51.898;11.444;2022-09-09T10:40:58;5.15;;;1.33;;
61091;SDS011;46975;51.898;11.444;2022-09-09T11:00:13;2.33;;;1.10;;
61091;SDS011;46975;51.898;11.444;2022-09-09T11:02:39;3.00;;;1.02;;
61091;SDS011;46975;51.898;11.444;2022-09-09T11:07:52;1.77;;;0.73;;
61091;SDS011;46975;51.898;11.444;2022-09-09T11:13:24;4.80;;;1.00;;
61091;SDS011;46975;51.898;11.444;2022-09-09T11:16:09;2.95;;;1.45;;
61091;SDS011;46975;51.898;11.444;2022-09-09T11:18:39;2.10;;;0.60;;
61091;SDS011;46975;51.898;11.444;2022-09-09T11:21:10;1.63;;;0.70;;
61091;SDS011;46975;51.898;11.444;2022-09-09T11:23:54;2.65;;;0.57;;
61091;SDS011;46975;51.898;11.444;2022-09-09T11:26:30;2.83;;;0.75;;
61091;SDS011;46975;51.898;11.444;2022-09-09T11:32:33;1.98;;;0.60;;
61091;SDS011;46975;51.898;11.444;2022-09-09T11:35:07;1.80;;;0.77;;
61091;SDS011;46975;51.898;11.444;2022-09-09T11:40:46;3.63;;;0.65;;
61091;SDS011;46975;51.898;11.444;2022-09-09T11:43:39;3.95;;;0.85;;
61091;SDS011;46975;51.898;11.444;2022-09-09T11:46:14;4.03;;;0.93;;
61091;SDS011;46975;51.898;11.444;2022-09-09T11:48:43;13.27;;;1.52;;
61091;SDS011;46975;51.898;11.444;2022-09-09T11:53:49;3.45;;;1.10;;
61091;SDS011;46975;51.898;11.444;2022-09-09T11:56:32;3.03;;;1.10;;
61091;SDS011;46975;51.898;11.444;2022-09-09T12:02:01;2.70;;;0.60;;
61091;SDS011;46975;51.898;11.444;2022-09-09T12:04:36;2.30;;;0.88;;
61091;SDS011;46975;51.898;11.444;2022-09-09T12:09:46;2.58;;;0.80;;
61091;SDS011;46975;51.898;11.444;2022-09-09T12:12:25;2.70;;;0.70;;
61091;SDS011;46975;51.898;11.444;2022-09-09T12:14:57;3.22;;;1.20;;
61091;SDS011;46975;51.898;11.444;2022-09-09T12:17:50;4.45;;;0.70;;
61091;SDS011;46975;51.898;11.444;2022-09-09T12:33:32;2.65;;;0.70;;
61091;SDS011;46975;51.898;11.444;2022-09-09T12:36:00;2.38;;;0.77;;
61091;SDS011;46975;51.898;11.444;2022-09-09T12:38:35;2.53;;;0.60;;
61091;SDS011;46975;51.898;11.444;2022-09-09T12:41:03;4.03;;;1.02;;
61091;SDS011;46975;51.898;11.444;2022-09-09T12:43:29;3.88;;;0.50;;
61091;SDS011;46975;51.898;11.444;2022-09-09T12:45:59;5.22;;;0.73;;
61091;SDS011;46975;51.898;11.444;2022-09-09T12:48:33;3.22;;;0.90;;
61091;SDS011;46975;51.898;11.444;2022-09-09T12:51:03;0.80;;;0.55;;
61091;SDS011;46975;51.898;11.444;2022-09-09T12:53:33;3.03;;;0.85;;
61091;SDS011;46975;51.898;11.444;2022-09-09T12:56:05;1.35;;;0.60;;
61091;SDS011;46975;51.898;11.444;2022-09-09T12:58:33;2.58;;;0.82;;
61091;SDS011;46975;51.898;11.444;2022-09-09T13:01:00;4.10;;;1.03;;
61091;SDS011;46975;51.898;11.444;2022-09-09T13:03:31;3.67;;;0.75;;
61091;SDS011;46975;51.898;11.444;2022-09-09T13:05:59;2.85;;;0.90;;
61091;SDS011;46975;51.898;11.444;2022-09-09T13:08:37;0.95;;;0.63;;
61091;SDS011;46975;51.898;11.444;2022-09-09T13:11:03;1.75;;;0.60;;
61091;SDS011;46975;51.898;11.444;2022-09-09T13:13:38;3.30;;;0.70;;
61091;SDS011;46975;51.898;11.444;2022-09-09T13:16:06;1.65;;;0.60;;
61091;SDS011;46975;51.898;11.444;2022-09-09T13:18:44;2.00;;;0.80;;
61091;SDS011;46975;51.898;11.444;2022-09-09T13:21:10;2.20;;;0.80;;
61091;SDS011;46975;51.898;11.444;2022-09-09T13:23:36;1.50;;;0.55;;
61091;SDS011;46975;51.898;11.444;2022-09-09T13:26:03;2.05;;;0.68;;
61091;SDS011;46975;51.898;11.444;2022-09-09T13:28:32;2.08;;;0.73;;
61091;SDS011;46975;51.898;11.444;2022-09-09T13:31:00;5.20;;;1.67;;
61091;SDS011;46975;51.898;11.444;2022-09-09T13:33:35;1.48;;;0.70;;
61091;SDS011;46975;51.898;11.444;2022-09-09T13:36:05;5.00;;;0.93;;
61091;SDS011;46975;51.898;11.444;2022-09-09T13:38:35;3.75;;;0.60;;
61091;SDS011;46975;51.898;11.444;2022-09-09T13:41:19;1.35;;;0.57;;
61091;SDS011;46975;51.898;11.444;2022-09-09T13:43:47;3.95;;;0.70;;
61091;SDS011;46975;51.898;11.444;2022-09-09T13:46:46;1.27;;;0.80;;
61091;SDS011;46975;51.898;11.444;2022-09-09T13:51:39;2.53;;;0.73;;
61091;SDS011;46975;51.898;11.444;2022-09-09T13:54:15;3.05;;;1.00;;
61091;SDS011;46975;51.898;11.444;2022-09-09T13:56:42;1.65;;;0.60;;
61091;SDS011;46975;51.898;11.444;2022-09-09T13:59:15;2.72;;;0.75;;
61091;SDS011;46975;51.898;11.444;2022-09-09T14:01:43;1.80;;;0.30;;
61091;SDS011;46975;51.898;11.444;2022-09-09T14:04:09;1.45;;;0.52;;
61091;SDS011;46975;51.898;11.444;2022-09-09T14:06:35;1.92;;;0.55;;
61091;SDS011;46975;51.898;11.444;2022-09-09T14:09:03;1.87;;;0.40;;
61091;SDS011;46975;51.898;11.444;2022-09-09T14:11:29;2.88;;;0.50;;
61091;SDS011;46975;51.898;11.444;2022-09-09T14:13:55;2.70;;;0.50;;
61091;SDS011;46975;51.898;11.444;2022-09-09T14:16:21;8.20;;;0.93;;
61091;SDS011;46975;51.898;11.444;2022-09-09T14:18:46;0.75;;;0.40;;
61091;SDS011;46975;51.898;11.444;2022-09-09T14:21:13;1.15;;;0.32;;
61091;SDS011;46975;51.898;11.444;2022-09-09T14:23:39;1.17;;;0.47;;
61091;SDS011;46975;51.898;11.444;2022-09-09T14:26:05;2.03;;;0.50;;
61091;SDS011;46975;51.898;11.444;2022-09-09T14:28:31;1.25;;;0.40;;
61091;SDS011;46975;51.898;11.444;2022-09-09T14:31:01;2.22;;;0.45;;
61091;SDS011;46975;51.898;11.444;2022-09-09T14:33:28;2.08;;;0.55;;
61091;SDS011;46975;51.898;11.444;2022-09-09T14:35:59;2.15;;;0.35;;
61091;SDS011;46975;51.898;11.444;2022-09-09T14:38:28;1.70;;;0.50;;
61091;SDS011;46975;51.898;11.444;2022-09-09T14:40:55;1.90;;;0.40;;
61091;SDS011;46975;51.898;11.444;2022-09-09T14:43:21;1.85;;;0.75;;
61091;SDS011;46975;51.898;11.444;2022-09-09T14:45:46;0.77;;;0.38;;
61091;SDS011;46975;51.898;11.444;2022-09-09T14:48:13;0.93;;;0.57;;
61091;SDS011;46975;51.898;11.444;2022-09-09T14:50:39;2.25;;;0.55;;
61091;SDS011;46975;51.898;11.444;2022-09-09T14:53:06;2.40;;;0.47;;
61091;SDS011;46975;51.898;11.444;2022-09-09T14:55:32;1.42;;;0.80;;
61091;SDS011;46975;51.898;11.444;2022-09-09T14:57:58;0.75;;;0.47;;
61091;SDS011;46975;51.898;11.444;2022-09-09T15:00:23;1.85;;;0.52;;
61091;SDS011;46975;51.898;11.444;2022-09-09T15:02:51;2.30;;;1.10;;
61091;SDS011;46975;51.898;11.444;2022-09-09T15:05:20;1.38;;;0.30;;
61091;SDS011;46975;51.898;11.444;2022-09-09T15:07:46;1.25;;;0.55;;
61091;SDS011;46975;51.898;11.444;2022-09-09T15:10:13;6.20;;;1.52;;
61091;SDS011;46975;51.898;11.444;2022-09-09T15:12:39;0.47;;;0.40;;
61091;SDS011;46975;51.898;11.444;2022-09-09T15:15:06;0.75;;;0.35;;
61091;SDS011;46975;51.898;11.444;2022-09-09T15:17:33;0.90;;;0.30;;
61091;SDS011;46975;51.898;11.444;2022-09-09T15:19:58;3.03;;;0.40;;
61091;SDS011;46975;51.898;11.444;2022-09-09T15:22:24;1.98;;;0.25;;
61091;SDS011;46975;51.898;11.444;2022-09-09T15:24:50;0.30;;;0.30;;
61091;SDS011;46975;51.898;11.444;2022-09-09T15:27:16;0.47;;;0.30;;
61091;SDS011;46975;51.898;11.444;2022-09-09T15:29:43;2.58;;;0.45;;
61091;SDS011;46975;51.898;11.444;2022-09-09T15:32:09;1.65;;;0.30;;
61091;SDS011;46975;51.898;11.444;2022-09-09T15:34:34;0.90;;;0.40;;
61091;SDS011;46975;51.898;11.444;2022-09-09T15:37:00;0.60;;;0.30;;
61091;SDS011;46975;51.898;11.444;2022-09-09T15:39:26;1.45;;;0.30;;
61091;SDS011;46975;51.898;11.444;2022-09-09T15:41:51;5.78;;;0.68;;
61091;SDS011;46975;51.898;11.444;2022-09-09T15:44:17;0.35;;;0.20;;
61091;SDS011;46975;51.898;11.444;2022-09-09T15:51:38;1.48;;;0.40;;
61091;SDS011;46975;51.898;11.444;2022-09-09T15:54:09;1.50;;;0.50;;
61091;SDS011;46975;51.898;11.444;2022-09-09T15:56:41;2.13;;;0.88;;
61091;SDS011;46975;51.898;11.444;2022-09-09T15:59:07;5.28;;;0.73;;
61091;SDS011;46975;51.898;11.444;2022-09-09T16:01:33;1.33;;;0.40;;
61091;SDS011;46975;51.898;11.444;2022-09-09T16:03:59;2.67;;;0.68;;
61091;SDS011;46975;51.898;11.444;2022-09-09T16:06:25;4.97;;;0.70;;
61091;SDS011;46975;51.898;11.444;2022-09-09T16:08:53;0.77;;;0.40;;
61091;SDS011;46975;51.898;11.444;2022-09-09T16:11:21;0.22;;;0.22;;
61091;SDS011;46975;51.898;11.444;2022-09-09T16:13:49;3.08;;;0.50;;
61091;SDS011;46975;51.898;11.444;2022-09-09T16:16:20;0.75;;;0.47;;
61091;SDS011;46975;51.898;11.444;2022-09-09T16:18:47;2.97;;;0.82;;
61091;SDS011;46975;51.898;11.444;2022-09-09T16:21:20;1.58;;;0.52;;
61091;SDS011;46975;51.898;11.444;2022-09-09T16:23:50;2.50;;;0.60;;
61091;SDS011;46975;51.898;11.444;2022-09-09T16:26:18;2.67;;;1.05;;
61091;SDS011;46975;51.898;11.444;2022-09-09T16:28:44;1.05;;;0.30;;
61091;SDS011;46975;51.898;11.444;2022-09-09T16:31:13;1.98;;;0.30;;
61091;SDS011;46975;51.898;11.444;2022-09-09T16:33:41;1.95;;;0.52;;
61091;SDS011;46975;51.898;11.444;2022-09-09T16:36:07;3.20;;;1.23;;
61091;SDS011;46975;51.898;11.444;2022-09-09T16:38:39;0.43;;;0.30;;
61091;SDS011;46975;51.898;11.444;2022-09-09T16:41:05;3.22;;;0.40;;
61091;SDS011;46975;51.898;11.444;2022-09-09T16:43:32;1.33;;;0.40;;
61091;SDS011;46975;51.898;11.444;2022-09-09T16:45:58;3.90;;;0.80;;
61091;SDS011;46975;51.898;11.444;2022-09-09T16:48:31;2.15;;;0.80;;
61091;SDS011;46975;51.898;11.444;2022-09-09T16:51:02;3.45;;;0.75;;
61091;SDS011;46975;51.898;11.444;2022-09-09T16:53:32;0.77;;;0.70;;
61091;SDS011;46975;51.898;11.444;2022-09-09T16:55:58;2.28;;;0.60;;
61091;SDS011;46975;51.898;11.444;2022-09-09T16:58:33;2.08;;;0.30;;
61091;SDS011;46975;51.898;11.444;2022-09-09T17:00:59;1.52;;;0.43;;
61091;SDS011;46975;51.898;11.444;2022-09-09T17:03:27;3.53;;;0.93;;
61091;SDS011;46975;51.898;11.444;2022-09-09T17:05:52;3.00;;;0.70;;
61091;SDS011;46975;51.898;11.444;2022-09-09T17:08:18;1.90;;;1.25;;
61091;SDS011;46975;51.898;11.444;2022-09-09T17:10:44;1.30;;;0.50;;
61091;SDS011;46975;51.898;11.444;2022-09-09T17:13:10;0.90;;;0.47;;
61091;SDS011;46975;51.898;11.444;2022-09-09T17:15:41;7.47;;;0.80;;
61091;SDS011;46975;51.898;11.444;2022-09-09T17:18:08;3.72;;;0.85;;
61091;SDS011;46975;51.898;11.444;2022-09-09T17:20:37;1.75;;;0.60;;
61091;SDS011;46975;51.898;11.444;2022-09-09T17:23:04;1.95;;;0.68;;
61091;SDS011;46975;51.898;11.444;2022-09-09T17:25:34;1.33;;;0.60;;
61091;SDS011;46975;51.898;11.444;2022-09-09T17:28:01;1.27;;;0.38;;
61091;SDS011;46975;51.898;11.444;2022-09-09T17:30:29;2.83;;;0.75;;